Time;durP1;ratioP1;P1;durP2;ratioP2;P2;SDS_P1;SDS_P2;PMS_P1;PMS_P2;Temp;Humidity;BMP_temperature;BMP_pressure;BME280_temperature;BME280_humidity;BME280_pressure;Samples;Min_cycle;Max_cycle;Signal;HPM_P1;HPM_P2
2022/12/25 00:03:01;;;;;;;40.63;20.90;;;;;;;6.53;84.53;100076.77;1635046;86;22757;-79
2022/12/25 00:06:07;;;;;;;30.27;20.40;;;;;;;6.53;84.29;100074.05;1627535;86;21311;-78
2022/12/25 00:09:12;;;;;;;32.58;20.25;;;;;;;6.48;84.12;100076.39;1666336;83;21249;-79
2022/12/25 00:12:19;;;;;;;30.37;19.92;;;;;;;6.25;84.72;100075.99;1625244;86;21549;-79
2022/12/25 00:15:26;;;;;;;35.70;21.48;;;;;;;6.39;84.04;100077.66;1675008;85;21245;-79
2022/12/25 00:18:31;;;;;;;32.60;20.00;;;;;;;6.53;83.55;100074.05;1649694;86;21295;-79
2022/12/25 00:21:37;;;;;;;30.68;19.60;;;;;;;6.56;83.43;100079.19;1674968;85;21266;-80
2022/12/25 00:24:43;;;;;;;32.10;20.75;;;;;;;6.47;83.93;100073.33;1663159;85;21242;-80
2022/12/25 00:27:47;;;;;;;33.38;21.17;;;;;;;6.53;83.88;100076.77;1658716;85;21290;-80
2022/12/25 00:30:53;;;;;;;35.65;22.73;;;;;;;6.55;83.72;100070.70;1671617;84;21260;-80
2022/12/25 00:33:58;;;;;;;35.48;22.00;;;;;;;6.40;84.10;100070.39;1650727;86;21892;-79
2022/12/25 00:37:03;;;;;;;32.60;20.55;;;;;;;6.23;84.87;100069.37;1654370;86;21265;-81
2022/12/25 00:40:09;;;;;;;30.80;19.82;;;;;;;6.09;85.04;100066.67;1641232;86;21233;-80
2022/12/25 00:43:14;;;;;;;36.90;21.40;;;;;;;5.82;86.28;100072.09;1654483;86;21218;-80
2022/12/25 00:46:20;;;;;;;32.63;20.48;;;;;;;5.83;86.61;100065.66;1619886;86;21286;-80
2022/12/25 00:49:28;;;;;;;31.70;19.62;;;;;;;5.91;86.55;100069.83;1611635;87;21255;-80
2022/12/25 00:52:35;;;;;;;36.20;22.40;;;;;;;5.88;86.62;100071.01;1596792;88;21264;-80
2022/12/25 00:55:41;;;;;;;35.43;22.30;;;;;;;5.96;86.43;100070.77;1627680;86;21802;-79
2022/12/25 00:58:47;;;;;;;34.00;20.80;;;;;;;6.00;86.55;100074.89;1633231;86;21218;-79
2022/12/25 01:01:54;;;;;;;30.65;20.50;;;;;;;5.96;86.77;100077.55;1643475;86;21217;-79
2022/12/25 01:05:03;;;;;;;35.85;21.12;;;;;;;5.99;86.97;100076.75;1649154;86;21590;-79
2022/12/25 01:08:10;;;;;;;34.73;21.60;;;;;;;5.96;86.90;100081.63;1648764;86;21223;-80
2022/12/25 01:11:17;;;;;;;39.85;23.22;;;;;;;6.05;86.70;100084.28;1650826;86;21265;-80
2022/12/25 01:14:23;;;;;;;37.83;24.35;;;;;;;5.93;86.58;100084.16;1662875;85;21242;-80
2022/12/25 01:17:28;;;;;;;31.52;20.23;;;;;;;5.93;86.38;100073.77;1649470;86;21235;-80
2022/12/25 01:20:34;;;;;;;36.13;22.02;;;;;;;6.07;86.08;100077.33;1649210;86;21782;-80
2022/12/25 01:23:39;;;;;;;33.85;21.37;;;;;;;5.95;86.28;100078.06;1666240;85;21827;-80
2022/12/25 01:26:47;;;;;;;38.10;21.82;;;;;;;6.02;86.26;100073.74;1650947;86;21215;-80
2022/12/25 01:29:53;;;;;;;37.78;20.85;;;;;;;5.92;86.48;100072.92;1630782;86;21249;-79
2022/12/25 01:32:58;;;;;;;41.25;24.18;;;;;;;6.02;86.34;100076.94;1646745;86;21234;-79
2022/12/25 01:36:04;;;;;;;42.58;22.75;;;;;;;5.78;86.91;100078.33;1646346;86;21270;-79
2022/12/25 01:39:10;;;;;;;47.75;26.55;;;;;;;5.34;89.90;100068.61;1639269;87;21380;-79
2022/12/25 01:42:25;;;;;;;46.00;24.85;;;;;;;5.38;89.59;100070.53;1650045;86;21233;-79
2022/12/25 01:45:51;;;;;;;46.83;26.95;;;;;;;5.18;90.22;100068.40;1647493;86;21242;-79
2022/12/25 01:48:57;;;;;;;46.35;26.17;;;;;;;5.30;90.36;100071.77;1649223;86;21227;-79
2022/12/25 01:52:20;;;;;;;46.83;27.07;;;;;;;5.21;91.09;100065.38;1652480;86;21218;-79
2022/12/25 01:55:26;;;;;;;46.28;25.85;;;;;;;5.32;90.85;100063.00;1650665;86;21250;-79
2022/12/25 01:58:31;;;;;;;48.42;27.93;;;;;;;5.37;90.68;100060.70;1650766;86;21250;-79
2022/12/25 02:01:37;;;;;;;48.60;28.17;;;;;;;5.38;90.72;100057.83;1672668;84;21262;-79
2022/12/25 02:05:04;;;;;;;51.58;28.27;;;;;;;5.26;90.92;100056.80;1652690;86;21968;-79
2022/12/25 02:08:17;;;;;;;62.45;34.33;;;;;;;5.19;91.60;100055.19;1651676;86;21218;-79
2022/12/25 02:14:47;;;;;;;67.17;33.75;;;;;;;5.37;91.08;100054.77;1651045;86;21223;-79
2022/12/25 02:18:04;;;;;;;71.97;33.53;;;;;;;5.32;91.08;100058.43;1657401;86;21259;-79
2022/12/25 02:21:24;;;;;;;67.78;33.92;;;;;;;5.34;91.01;100062.34;1669183;86;21254;-79
2022/12/25 02:24:41;;;;;;;;;;;;;;;5.48;90.60;100058.28;1670269;86;21234;-79
2022/12/25 02:28:12;;;;;;;;;;;;;;;5.51;90.40;100054.78;1671817;86;20641;-79
2022/12/25 02:31:28;;;;;;;;;;;;;;;5.54;90.28;100061.74;1671197;86;20260;-79
2022/12/25 02:34:51;;;;;;;;;;;;;;;5.58;90.19;100064.01;1678497;85;20627;-79
2022/12/25 02:38:00;;;;;;;;;;;;;;;5.48;90.42;100061.00;1654978;86;20223;-79
2022/12/25 02:41:08;;;;;;;;;;;;;;;5.42;90.83;100076.52;1673526;85;20227;-79
2022/12/25 03:08:10;;;;;;;;;;;;;;;5.58;91.54;100083.50;1591691;90;20227;-79
2022/12/25 03:11:31;;;;;;;;;;;;;;;5.63;91.19;100076.62;1626311;88;20219;-79
2022/12/25 03:17:56;;;;;;;;;;;;;;;5.66;90.92;100081.41;1636344;86;20259;-79
2022/12/25 03:27:44;;;;;;;;;;;;;;;5.58;90.98;100082.15;1648025;87;20212;-79
2022/12/25 03:31:11;;;;;;;;;;;;;;;5.42;92.30;100080.59;1638867;86;20619;-79
2022/12/25 04:36:12;;;;;;;;;;;;;;;5.55;90.52;100138.05;1640925;86;20877;-79
2022/12/25 04:39:17;;;;;;;;;;;;;;;5.54;90.71;100128.22;1623365;87;20230;-79
2022/12/25 04:42:23;;;;;;;;;;;;;;;5.46;91.13;100129.45;1625578;87;20249;-79
2022/12/25 04:45:27;;;;;;;;;;;;;;;5.68;90.71;100133.16;1598725;88;20232;-79
2022/12/25 04:48:33;;;;;;;;;;;;;;;5.58;90.93;100135.06;1598322;89;20228;-79
2022/12/25 04:51:38;;;;;;;;;;;;;;;5.63;90.94;100138.17;1654208;86;20223;-79
2022/12/25 04:54:44;;;;;;;;;;;;;;;5.82;90.98;100128.59;1596879;89;20248;-79
2022/12/25 04:57:49;;;;;;;;;;;;;;;5.89;89.91;100136.50;1669547;84;20238;-79
2022/12/25 05:00:53;;;;;;;;;;;;;;;5.97;89.49;100134.91;1652346;86;20232;-79
2022/12/25 05:03:59;;;;;;;;;;;;;;;5.92;89.42;100135.87;1630450;87;20718;-79
2022/12/25 05:07:03;;;;;;;;;;;;;;;5.76;89.96;100138.70;1624320;86;20222;-79
2022/12/25 05:10:08;;;;;;;;;;;;;;;5.89;89.71;100132.43;1625162;86;20267;-79
2022/12/25 05:13:12;;;;;;;;;;;;;;;6.03;89.45;100137.89;1625669;86;20226;-79
2022/12/25 05:16:24;;;;;;;;;;;;;;;6.08;89.33;100146.44;1622938;86;20234;-79
2022/12/25 05:19:27;;;;;;;;;;;;;;;6.26;88.75;100143.77;1624697;85;20244;-79
2022/12/25 05:22:33;;;;;;;;;;;;;;;6.20;89.20;100151.14;1627719;88;20703;-79
2022/12/25 05:25:39;;;;;;;;;;;;;;;6.28;88.72;100151.75;1629623;87;21145;-79
2022/12/25 05:28:43;;;;;;;;;;;;;;;6.13;88.85;100156.84;1626979;86;20259;-79
2022/12/25 05:31:48;;;;;;;;;;;;;;;6.13;89.18;100152.27;1629233;86;20230;-79
2022/12/25 05:34:52;;;;;;;;;;;;;;;6.14;89.32;100162.12;1626186;87;20249;-80
2022/12/25 05:37:56;;;;;;;;;;;;;;;6.23;88.86;100156.28;1628037;84;20241;-79
2022/12/25 05:41:01;;;;;;;;;;;;;;;6.19;89.22;100158.09;1627798;87;20230;-79
2022/12/25 05:44:05;;;;;;;;;;;;;;;6.36;89.04;100170.36;1628464;86;20216;-79
2022/12/25 05:47:11;;;;;;;;;;;;;;;6.34;88.96;100165.56;1626785;86;20230;-79
2022/12/25 05:50:16;;;;;;;;;;;;;;;6.13;89.41;100167.71;1625089;86;20377;-80
2022/12/25 05:53:22;;;;;;;;;;;;;;;6.09;90.45;100175.80;1625660;86;20229;-80
2022/12/25 05:56:27;;;;;;;;;;;;;;;6.11;90.35;100172.42;1629677;86;20258;-79
2022/12/25 05:59:30;;;;;;;;;;;;;;;6.13;89.90;100175.35;1623597;86;20228;-80
2022/12/25 06:02:35;;;;;;;;;;;;;;;6.05;89.30;100179.31;1626282;85;20233;-79
2022/12/25 06:05:40;;;;;;;;;;;;;;;5.89;89.71;100178.58;1627879;86;20243;-79
2022/12/25 06:08:47;;;;;;;;;;;;;;;5.81;89.91;100186.60;1631219;86;20228;-79
2022/12/25 06:11:52;;;;;;;;;;;;;;;5.89;89.72;100184.01;1624288;88;20688;-80
2022/12/25 06:14:56;;;;;;;;;;;;;;;5.94;90.20;100184.10;1617989;87;20274;-80
2022/12/25 06:18:00;;;;;;;;;;;;;;;5.94;90.29;100189.53;1625692;86;20320;-79
2022/12/25 06:21:06;;;;;;;;;;;;;;;5.80;91.06;100186.77;1626597;88;20659;-79
2022/12/25 06:24:11;;;;;;;;;;;;;;;5.86;90.65;100187.02;1640458;86;20653;-79
2022/12/25 06:27:16;;;;;;;;;;;;;;;5.82;89.97;100188.81;1610848;86;20244;-79
2022/12/25 06:30:22;;;;;;;;;;;;;;;5.76;89.67;100191.62;1623809;86;20255;-79
2022/12/25 06:33:26;;;;;;;;;;;;;;;5.69;90.02;100193.71;1627586;86;20263;-80
2022/12/25 06:36:33;;;;;;;;;;;;;;;5.72;90.39;100194.28;1626173;86;20205;-78
2022/12/25 06:39:37;;;;;;;;;;;;;;;5.70;90.48;100196.30;1618122;87;20649;-78
2022/12/25 06:42:42;;;;;;;;;;;;;;;5.72;90.56;100191.56;1641110;83;20226;-78
2022/12/25 06:45:48;;;;;;;;;;;;;;;5.70;90.30;100197.66;1648188;85;20223;-78
2022/12/25 06:48:53;;;;;;;;;;;;;;;5.79;90.54;100199.48;1617777;86;20246;-79
2022/12/25 06:51:57;;;;;;;;;;;;;;;5.93;90.25;100199.53;1625246;86;20214;-78
2022/12/25 06:55:01;;;;;;;;;;;;;;;5.94;90.02;100200.39;1618101;86;20254;-78
2022/12/25 06:58:05;;;;;;;;;;;;;;;5.77;90.00;100196.55;1606294;86;20212;-78
2022/12/25 07:01:14;;;;;;;;;;;;;;;5.82;90.31;100209.17;1606404;86;20228;-78
2022/12/25 07:04:26;;;;;;;;;;;;;;;5.74;90.93;100211.29;1627618;86;20224;-81
2022/12/25 07:07:30;;;;;;;;;;;;;;;5.84;90.56;100218.89;1613738;87;20217;-79
2022/12/25 07:10:34;;;;;;;;;;;;;;;5.96;90.14;100225.52;1623777;86;20230;-79
2022/12/25 07:13:40;;;;;;;;;;;;;;;5.92;90.98;100226.30;1617423;88;20259;-78
2022/12/25 07:16:38;;;;;;;;;;;;;;;6.18;90.15;100222.42;1627162;88;20273;-78
2022/12/25 07:19:44;;;;;;;;;;;;;;;5.96;90.74;100217.38;1628566;88;20259;-79
2022/12/25 07:22:49;;;;;;;;;;;;;;;6.17;90.78;100223.44;1619771;88;20270;-78
2022/12/25 07:26:03;;;;;;;;;;;;;;;6.15;90.81;100229.00;1600587;89;20220;-78
2022/12/25 07:29:07;;;;;;;;;;;;;;;6.26;90.42;100221.18;1627864;85;20241;-78
2022/12/25 07:32:12;;;;;;;;;;;;;;;5.81;91.10;100216.97;1625592;86;20265;-79
2022/12/25 07:35:18;;;;;;;;;;;;;;;5.51;93.40;100225.70;1628676;86;20228;-78
2022/12/25 07:38:23;;;;;;;;;;;;;;;5.53;95.71;100225.03;1626996;86;20222;-78
2022/12/25 07:41:29;;;;;;;;;;;;;;;6.00;92.65;100229.65;1615837;86;20231;-78
2022/12/25 07:44:37;;;;;;;;;;;;;;;5.97;92.00;100238.08;1618705;86;20215;-78
2022/12/25 07:47:43;;;;;;;;;;;;;;;6.13;91.67;100236.45;1613699;87;20231;-78
2022/12/25 07:50:50;;;;;;;;;;;;;;;6.13;91.91;100236.45;1610531;87;20643;-78
2022/12/25 07:53:53;;;;;;;;;;;;;;;6.19;91.03;100243.14;1615869;87;20259;-79
2022/12/25 07:56:59;;;;;;;;;;;;;;;6.40;90.16;100241.56;1635666;86;20308;-78
2022/12/25 08:00:02;;;;;;;;;;;;;;;6.14;90.69;100234.08;1616389;86;20291;-78
2022/12/25 08:03:07;;;;;;;;;;;;;;;5.96;92.40;100240.45;1637984;85;20232;-78
2022/12/25 08:06:14;;;;;;;;;;;;;;;6.26;91.22;100237.98;1612560;86;20228;-78
2022/12/25 08:09:18;;;;;;;;;;;;;;;6.27;91.46;100235.11;1628769;85;20292;-78
2022/12/25 08:12:23;;;;;;;;;;;;;;;6.19;90.91;100237.71;1626435;86;20230;-80
2022/12/25 08:15:27;;;;;;;;;;;;;;;6.24;90.71;100240.83;1625405;86;20266;-80
2022/12/25 08:18:31;;;;;;;;;;;;;;;6.26;91.22;100248.85;1621777;86;20252;-80
2022/12/25 08:21:35;;;;;;;;;;;;;;;6.47;90.60;100246.72;1625562;86;20230;-79
2022/12/25 08:24:39;;;;;;;;;;;;;;;6.26;91.08;100245.62;1629301;86;20258;-79
2022/12/25 08:27:43;;;;;;;;;;;;;;;6.47;90.92;100237.72;1640518;86;20204;-79
2022/12/25 08:30:48;;;;;;;;;;;;;;;6.54;90.52;100229.30;1623319;88;20361;-79
2022/12/25 08:33:54;;;;;;;;;;;;;;;6.60;89.79;100232.78;1641238;83;20230;-79
2022/12/25 08:36:57;;;;;;;;;;;;;;;6.75;89.58;100233.96;1657371;86;20252;-79
2022/12/25 08:40:02;;;;;;;;;;;;;;;6.72;89.42;100232.05;1611011;88;20245;-78
2022/12/25 08:43:07;;;;;;;;;;;;;;;6.33;90.16;100230.42;1648045;84;20252;-78
2022/12/25 08:46:12;;;;;;;;;;;;;;;6.37;91.24;100236.41;1620281;87;20225;-78
2022/12/25 08:49:17;;;;;;;;;;;;;;;6.31;91.50;100236.52;1618970;88;20180;-79
2022/12/25 08:52:22;;;;;;;;;;;;;;;6.25;92.02;100233.03;1627709;86;20245;-79
2022/12/25 08:55:26;;;;;;;;;;;;;;;6.24;92.33;100231.83;1618547;86;20210;-79
2022/12/25 08:58:29;;;;;;;;;;;;;;;6.52;91.35;100229.45;1649534;85;20232;-79
2022/12/25 09:01:35;;;;;;;;;;;;;;;6.58;91.02;100236.98;1613619;87;20229;-78
2022/12/25 09:04:40;;;;;;;;;;;;;;;6.51;91.67;100235.05;1615926;87;20232;-78
2022/12/25 09:07:45;;;;;;;;;;;;;;;6.39;91.67;100227.09;1622387;86;20433;-78
2022/12/25 09:10:50;;;;;;;;;;;;;;;6.63;91.16;100232.45;1627477;86;20208;-79
2022/12/25 09:13:55;;;;;;;;;;;;;;;6.65;91.30;100218.23;1613214;87;20718;-78
2022/12/25 09:16:58;;;;;;;;;;;;;;;6.40;92.67;100217.95;1625805;87;20218;-78
2022/12/25 09:20:03;;;;;;;;;;;;;;;6.50;92.80;100225.20;1628221;86;20225;-78
2022/12/25 09:23:09;;;;;;;;;;;;;;;6.58;92.63;100229.34;1628056;86;20223;-78
2022/12/25 09:26:15;;;;;;;;;;;;;;;6.60;92.98;100234.99;1611267;86;20202;-79
2022/12/25 09:29:15;;;;;;;;;;;;;;;6.72;92.80;100234.26;1640606;86;20310;-79
2022/12/25 09:32:07;;;;;;;;;;;;;;;6.80;91.87;100228.91;1625776;86;20212;-78
2022/12/25 09:35:12;;;;;;;;;;;;;;;6.70;91.18;100221.84;1622884;88;20226;-79
2022/12/25 09:38:17;;;;;;;;;;;;;;;6.56;91.40;100224.58;1640512;83;20206;-78
2022/12/25 09:41:36;;;;;;;;;;;;;;;6.47;91.70;100221.41;1640989;85;20198;-78
2022/12/25 09:44:43;;;;;;;;;;;;;;;6.56;91.48;100215.92;1648053;86;20483;-79
2022/12/25 09:47:48;;;;;;;;;;;;;;;6.58;91.73;100214.40;1620414;86;20311;-79
2022/12/25 09:50:56;;;;;;;;;;;;;;;6.52;91.82;100216.37;1612087;88;20255;-79
2022/12/25 09:54:04;;;;;;;;;;;;;;;6.49;92.20;100209.87;1645129;83;20699;-79
2022/12/25 09:57:09;;;;;;;;;;;;;;;6.71;92.48;100216.24;1662397;84;20250;-79
2022/12/25 10:00:27;;;;;;;;;;;;;;;6.71;91.90;100215.39;1652262;86;20250;-78
2022/12/25 10:03:57;;;;;;;;;;;;;;;6.79;91.52;100212.27;1654075;86;20234;-79
2022/12/25 10:07:22;;;;;;;;;;;;;;;6.98;91.34;100211.77;1652348;86;20735;-78
2022/12/25 10:10:39;;;;;;;;;;;;;;;6.79;91.62;100215.48;1616060;88;20624;-81
2022/12/25 10:13:48;;;;;;;;;;;;;;;6.67;91.79;100214.84;1623085;87;20222;-81
2022/12/25 10:17:14;;;;;;;;;;;;;;;6.76;91.14;100211.20;1622003;88;20227;-80
2022/12/25 10:20:39;;;;;;;;;;;;;;;6.97;90.19;100216.86;1614326;88;20246;-79
2022/12/25 10:23:46;;;;;;;;;;;;;;;6.84;90.40;100219.45;1619844;88;20239;-79
2022/12/25 10:26:52;;;;;;;;;;;;;;;6.26;93.45;100225.25;1619555;88;20227;-80
2022/12/25 10:29:58;;;;;;;;;;;;;;;6.40;92.43;100222.54;1616922;88;20274;-80
2022/12/25 10:33:04;;;;;;;;;;;;;;;6.49;93.33;100209.87;1665479;85;20248;-78
2022/12/25 10:36:12;;;;;;;;;;;;;;;6.56;91.98;100204.20;1677736;85;20226;-79
2022/12/25 10:39:24;;;;;;;;;;;;;;;6.61;92.31;100203.23;1657937;86;20712;-80
2022/12/25 10:42:39;;;;;;;;;;;;;;;6.69;92.32;100206.05;1653910;86;20229;-80
2022/12/25 10:45:54;;;;;;;;;;;;;;;6.86;91.91;100200.25;1653668;86;20236;-79
2022/12/25 10:49:03;;;;;;;;;;;;;;;6.88;91.33;100207.26;1652496;86;20222;-78
2022/12/25 10:52:07;;;;;;;;;;;;;;;7.04;91.14;100210.63;1657710;86;20224;-78
2022/12/25 10:55:20;;;;;;;;;;;;;;;6.97;91.21;100215.50;1650978;86;20665;-78
2022/12/25 10:58:27;;;;;;;;;;;;;;;7.06;91.17;100206.41;1652374;86;20226;-79
2022/12/25 11:01:33;;;;;;;;;;;;;;;7.02;91.54;100202.29;1656792;86;20219;-80
2022/12/25 11:04:40;;;;;;;;;;;;;;;7.00;91.94;100201.57;1655272;86;20222;-79
2022/12/25 11:07:53;;;;;;;;;;;;;;;7.00;91.71;100208.38;1657157;86;20236;-79
2022/12/25 11:11:04;;;;;;;;;;;;;;;7.02;91.66;100203.65;1642656;86;20233;-79
2022/12/25 11:14:09;;;;;;;;;;;;;;;7.15;91.54;100211.77;1654223;86;20247;-79
2022/12/25 11:17:19;;;;;;;;;;;;;;;7.04;91.49;100216.57;1658578;86;20248;-79
2022/12/25 11:20:24;;;;;;;;;;;;;;;7.37;91.04;100211.75;1646612;86;20271;-79
2022/12/25 11:23:30;;;;;;;;;;;;;;;7.35;90.60;100213.80;1652533;86;20223;-79
2022/12/25 11:26:36;;;;;;;;;;;;;;;7.44;89.88;100213.35;1654115;86;20256;-79
2022/12/25 11:29:55;;;;;;;;;;;;;;;7.52;89.86;100216.63;1654973;86;20873;-79
2022/12/25 11:32:59;;;;;;;;;;;;;;;7.53;89.56;100217.84;1652456;86;20629;-79
2022/12/25 11:36:04;;;;;;;;;;;;;;;7.45;89.88;100216.42;1654625;86;20257;-79
2022/12/25 11:39:18;;;;;;;;;;;;;;;7.48;90.22;100224.27;1654265;86;20208;-79
2022/12/25 11:42:45;;;;;;;;;;;;;;;7.52;89.80;100216.63;1656402;86;20261;-79
2022/12/25 11:46:22;;;;;;;;;;;;;;;7.52;89.36;100209.31;1658203;86;20227;-79
2022/12/25 11:49:27;;;;;;;;;;;;;;;7.45;89.71;100216.42;1645574;86;20209;-81
2022/12/25 11:52:32;;;;;;;;;;;;;;;7.45;89.69;100220.50;1652515;86;20241;-80
2022/12/25 11:55:53;;;;;;;;;;;;;;;7.44;89.90;100226.96;1651299;86;20705;-80
2022/12/25 11:58:58;;;;;;;;;;;;;;;7.48;89.84;100220.67;1669485;85;20225;-79
2022/12/25 12:02:07;;;;;;;;;;;;;;;7.45;90.22;100223.73;1656861;85;20224;-80
2022/12/25 12:05:24;;;;;;;;;;;;;;;7.43;90.28;100217.95;1668511;84;20248;-80
2022/12/25 12:08:27;;;;;;;;;;;;;;;7.38;90.00;100218.89;1653347;87;20210;-80
2022/12/25 12:11:42;;;;;;;;;;;;;;;7.32;90.48;100220.05;1660214;86;20256;-79
2022/12/25 12:14:54;;;;;;;;;;;;;;;7.27;91.07;100227.32;1661859;86;20218;-79
2022/12/25 12:17:58;;;;;;;;;;;;;;;7.29;91.41;100229.88;1655418;86;20216;-79
2022/12/25 12:21:05;;;;;;;;;;;;;;;7.16;91.78;100234.38;1659472;85;20254;-79
2022/12/25 12:24:13;;;;;;;;;;;;;;;7.09;92.19;100234.13;1652734;86;20631;-79
2022/12/25 12:27:36;;;;;;;;;;;;;;;7.08;92.29;100231.57;1653745;86;21023;-79
2022/12/25 12:30:42;;;;;;;;;;;;;;;7.08;92.41;100236.50;1654630;87;20216;-78
2022/12/25 12:33:50;;;;;;;;;;;;;;;7.04;92.75;100238.33;1654741;87;20242;-79
2022/12/25 12:36:55;;;;;;;;;;;;;;;6.82;93.47;100241.87;1654338;86;20242;-79
2022/12/25 12:40:01;;;;;;;;;;;;;;;7.02;93.35;100236.28;1657500;86;20248;-79
2022/12/25 12:43:05;;;;;;;;;;;;;;;7.02;93.49;100237.64;1646792;86;20239;-79
2022/12/25 12:46:14;;;;;;;;;;;;;;;6.98;93.74;100241.17;1654974;86;20222;-79
2022/12/25 12:49:28;;;;;;;;;;;;;;;7.05;93.95;100244.11;1654288;86;20216;-79
2022/12/25 12:52:40;;;;;;;;;;;;;;;6.93;94.52;100238.06;1654047;86;20227;-78
2022/12/25 12:55:44;;;;;;;;;;;;;;;6.91;95.00;100244.14;1680675;85;20210;-78
2022/12/25 12:58:51;;;;;;;;;;;;;;;6.94;94.90;100245.20;1672681;85;20660;-78
2022/12/25 13:02:13;;;;;;;;;;;;;;;6.88;94.95;100247.19;1674985;85;20599;-79
2022/12/25 13:05:25;;;;;;;;;;;;;;;7.06;94.38;100254.00;1652684;86;20250;-78
2022/12/25 13:08:52;;;;;;;;;;;;;;;6.95;94.67;100252.34;1657146;86;20228;-78
2022/12/25 13:11:57;;;;;;;;;;;;;;;7.11;94.27;100259.83;1638834;86;20249;-78
2022/12/25 13:15:02;;;;;;;;;;;;;;;7.05;94.69;100264.51;1664004;86;20212;-78
2022/12/25 13:18:10;;;;;;;;;;;;;;;7.04;94.67;100268.25;1672766;85;20245;-78
2022/12/25 13:21:22;;;;;;;;;;;;;;;7.05;95.14;100268.08;1672442;85;20271;-79
2022/12/25 13:24:29;;;;;;;;;;;;;;;7.04;95.55;100266.38;1662502;85;20227;-78
2022/12/25 13:27:37;;;;;;;;;;;;;;;7.17;95.10;100272.30;1675642;84;20636;-79
2022/12/25 13:30:42;;;;;;;;;;;;;;;7.32;94.28;100278.04;1662725;85;20296;-79
2022/12/25 13:33:47;;;;;;;;;;;;;;;7.27;94.36;100279.02;1663010;86;20211;-79
2022/12/25 13:36:51;;;;;;;;;;;;;;;7.15;94.55;100281.60;1662475;85;20288;-79
2022/12/25 13:40:04;;;;;;;;;;;;;;;6.99;95.01;100270.58;1659600;86;20661;-79
2022/12/25 13:43:09;;;;;;;;;;;;;;;7.06;95.06;100275.77;1657827;86;20375;-79
2022/12/25 13:46:08;;;;;;;;;;;;;;;7.10;94.85;100283.94;1681809;85;20266;-79
2022/12/25 13:49:17;;;;;;;;;;;;;;;7.11;94.87;100292.47;1652295;86;20680;-79
2022/12/25 13:52:24;;;;;;;;;;;;;;;7.03;95.25;100285.58;1639212;86;20229;-79
2022/12/25 13:55:32;;;;;;;;;;;;;;;6.87;95.28;100287.13;1659611;86;20216;-78
2022/12/25 13:58:39;;;;;;;;;;;;;;;7.09;94.78;100290.39;1654873;87;20649;-79
2022/12/25 14:01:50;;;;;;;;;;;;;;;7.02;94.70;100294.75;1654652;86;20503;-79
2022/12/25 14:04:55;;;;;;;;;;;;;;;7.16;94.50;100295.58;1652399;86;20254;-79
2022/12/25 14:08:02;;;;;;;;;;;;;;;7.17;94.22;100291.84;1674105;85;20251;-79
2022/12/25 14:11:11;;;;;;;;;;;;;;;7.06;94.73;100294.80;1652803;86;20238;-79
2022/12/25 14:14:27;;;;;;;;;;;;;;;7.00;95.09;100300.83;1678854;85;20647;-79
2022/12/25 14:17:32;;;;;;;;;;;;;;;7.03;94.85;100297.31;1665805;85;20243;-79
2022/12/25 14:20:45;;;;;;;;;;;;;;;7.13;94.63;100309.48;1674655;85;20230;-78
2022/12/25 14:23:52;;;;;;;;;;;;;;;7.04;94.31;100303.60;1653821;86;20242;-79
2022/12/25 14:27:05;;;;;;;;;;;;;;;6.97;94.66;100310.17;1659696;86;20228;-79
2022/12/25 14:30:17;;;;;;;;;;;;;;;6.99;94.99;100310.86;1658409;86;20220;-79
2022/12/25 14:33:24;;;;;;;;;;;;;;;7.00;95.15;100315.79;1654672;85;20630;-79
2022/12/25 14:36:28;;;;;;;;;;;;;;;6.95;95.39;100314.89;1653451;86;20228;-79
2022/12/25 14:39:38;;;;;;;;;;;;;;;7.12;94.95;100321.38;1639139;86;20228;-79
2022/12/25 14:42:43;;;;;;;;;;;;;;;7.06;94.86;100330.16;1655676;86;20729;-79
2022/12/25 14:45:48;;;;;;;;;;;;;;;6.98;95.45;100335.50;1652908;86;20224;-81
2022/12/25 14:48:52;;;;;;;;;;;;;;;6.90;95.95;100333.02;1655122;86;20220;-78
2022/12/25 14:51:56;;;;;;;;;;;;;;;7.09;95.69;100331.19;1674388;85;20630;-78
2022/12/25 14:55:05;;;;;;;;;;;;;;;7.10;95.33;100330.17;1653305;86;20210;-78
2022/12/25 14:58:11;;;;;;;;;;;;;;;7.07;95.57;100335.95;1653222;86;20251;-78
2022/12/25 15:01:22;;;;;;;;;;;;;;;6.87;96.23;100340.14;1654811;86;20230;-78
2022/12/25 15:04:27;;;;;;;;;;;;;;;6.93;96.51;100335.95;1657849;86;20234;-78
2022/12/25 15:07:35;;;;;;;;;;;;;;;6.95;96.56;100334.44;1676981;85;20251;-78
2022/12/25 15:10:41;;;;;;;;;;;;;;;6.98;96.25;100334.99;1666417;85;20226;-78
2022/12/25 15:13:47;;;;;;;;;;;;;;;6.92;96.00;100336.97;1681054;85;20246;-78
2022/12/25 15:16:55;;;;;;;;;;;;;;;6.90;95.78;100347.98;1610891;88;20248;-79
2022/12/25 15:20:01;;;;;;;;;;;;;;;6.88;95.93;100345.08;1623203;88;20607;-78
2022/12/25 15:23:05;;;;;;;;;;;;;;;6.76;96.33;100338.97;1656409;86;20251;-78
2022/12/25 15:26:12;;;;;;;;;;;;;;;6.85;96.28;100342.65;1652741;86;20703;-77
2022/12/25 15:29:17;;;;;;;;;;;;;;;6.81;96.42;100344.80;1652446;86;20234;-78
2022/12/25 15:32:26;;;;;;;;;;;;;;;6.93;95.62;100351.42;1653275;86;20390;-78
2022/12/25 15:35:32;;;;;;;;;;;;;;;6.94;95.87;100356.70;1654170;86;20238;-78
2022/12/25 15:38:37;;;;;;;;;;;;;;;7.03;95.71;100354.94;1656146;86;20294;-78
2022/12/25 15:45:06;;;;;;;;;;;;;;;6.97;96.09;100357.77;1678569;85;20207;-79
2022/12/25 15:48:12;;;;;;;;;;;;;;;7.11;95.45;100357.25;1673762;85;20231;-79
2022/12/25 15:51:16;;;;;;;;;;;;;;;7.10;95.17;100357.38;1671639;86;20223;-79
2022/12/25 15:54:19;;;;;;;;;;;;;;;7.00;95.22;100360.66;1678881;85;20230;-80
2022/12/25 15:57:29;;;;;;;;;;;;;;;6.94;95.45;100362.13;1652753;86;20243;-79
2022/12/25 16:00:33;;;;;;;;;;;;;;;6.95;95.45;100361.63;1677971;85;20230;-79
2022/12/25 16:03:38;;;;;;;;;;;;;;;6.99;95.55;100360.32;1668703;85;20615;-77
2022/12/25 16:06:42;;;;;;;;;;;;;;;7.06;95.20;100364.16;1668228;84;20275;-79
2022/12/25 16:09:46;;;;;;;;;;;;;;;7.00;95.37;100366.11;1651749;86;20224;-78
2022/12/25 16:12:52;;;;;;;;;;;;;;;6.98;95.26;100370.85;1655963;86;20231;-78
2022/12/25 16:15:57;;;;;;;;;;;;;;;7.01;95.29;100369.17;1675014;85;20225;-79
2022/12/25 16:19:02;;;;;;;;;;;;;;;6.99;95.10;100368.48;1641742;86;20254;-79
2022/12/25 16:22:06;;;;;;;;;;;;;;;6.95;95.08;100373.86;1664745;85;20430;-79
2022/12/25 16:25:12;;;;;;;;;;;;;;;6.98;95.63;100371.70;1654588;85;20246;-80
2022/12/25 16:28:16;;;;;;;;;;;;;;;6.89;95.22;100368.53;1665631;85;20683;-79
2022/12/25 16:31:21;;;;;;;;;;;;;;;6.95;95.36;100375.22;1641398;87;20275;-79
2022/12/25 16:34:25;;;;;;;;;;;;;;;7.04;95.23;100374.31;1644090;86;20234;-79
2022/12/25 16:37:30;;;;;;;;;;;;;;;7.05;95.02;100377.38;1636929;86;20274;-78
2022/12/25 16:40:34;;;;;;;;;;;;;;;7.09;94.79;100373.35;1645089;86;20213;-79
2022/12/25 16:43:37;;;;;;;;;;;;;;;7.12;94.32;100377.98;1645918;86;20237;-79
2022/12/25 16:46:43;;;;;;;;;;;;;;;7.07;94.34;100377.59;1638361;86;20232;-79
2022/12/25 16:49:48;;;;;;;;;;;;;;;7.09;94.43;100376.07;1640651;86;20264;-79
2022/12/25 16:52:52;;;;;;;;;;;;;;;7.00;94.85;100374.27;1668903;85;21088;-79
2022/12/25 16:55:56;;;;;;;;;;;;;;;6.99;94.46;100384.80;1637432;86;20303;-80
2022/12/25 16:59:02;;;;;;;;;;;;;;;6.92;94.79;100383.20;1641170;86;20678;-80
2022/12/25 17:02:06;;;;;;;;;;;;;;;6.97;94.80;100386.31;1642885;85;20269;-80
2022/12/25 17:05:12;;;;;;;;;;;;;;;6.87;95.29;100384.16;1664001;85;20303;-79
2022/12/25 17:08:16;;;;;;;;;;;;;;;6.93;95.00;100386.27;1604639;88;20213;-79
2022/12/25 17:11:25;;;;;;;;;;;;;;;6.99;94.59;100384.28;1662721;85;20248;-78
2022/12/25 17:14:26;;;;;;;;;;;;;;;6.94;94.44;100387.97;1667003;85;20223;-79
2022/12/25 17:17:31;;;;;;;;;;;;;;;6.83;95.01;100384.95;1682565;84;20226;-80
2022/12/25 17:20:36;;;;;;;;;;;;;;;6.80;95.32;100385.75;1684926;84;21160;-80
2022/12/25 17:23:48;;;;;;;;;;;;;;;6.79;95.80;100388.98;1655977;86;20220;-79
2022/12/25 17:26:54;;;;;;;;;;;;;;;6.80;95.77;100389.31;1660294;85;20206;-79
2022/12/25 17:29:58;;;;;;;;;;;;;;;6.93;95.68;100388.98;1652677;86;21250;-79
2022/12/25 17:33:02;;;;;;;;;;;;;;;6.91;95.68;100389.11;1652342;86;20621;-79
2022/12/25 17:36:09;;;;;;;;;;;;;;;6.93;95.14;100389.48;1655092;86;20276;-79
2022/12/25 17:39:15;;;;;;;;;;;;;;;6.96;95.22;100391.89;1601854;89;20265;-79
2022/12/25 17:42:18;;;;;;;;;;;;;;;6.84;95.70;100393.96;1652465;86;20230;-78